Warning: Javascript must be enabled to use all the features on this page!


Page Loading - Please Wait...

* We've detected you're using a mobile device. Find our Next Generation Station Page here.
Click to hideNews Bulletins
  • Explore the NEW USGS National Water Dashboard interactive map to access real-time water data from over 13,500 stations nationwide.
  • Full News RSS icon
  • USGS has scheduled planned maintenance to our IT infrastructure, starting Tuesday, June 28, 2022, from 8:00-10:00am Eastern Daylight Time (EDT). During the maintenance period, there will be a short interruption in the availability of the most recent time-series data. Any backlog will be made available following conclusion of the scheduled maintenance.

Peak Streamflow for the Nation

USGS 06881000 Big Blue River near Crete, Nebr.

Saline County, Nebraska
Hydrologic Unit Code 10270202
Latitude  40°35'48", Longitude  96°57'38" NAD83
Drainage area 2,710  square miles
Gage datum 1,311.70 feet above NGVD29
Output formats
Table
Graph
Tab-separated file
peakfq (watstore) format
Reselect output format
Water
Year
Date Gage
Height
(feet)
Stream-
flow
(cfs)
1945 1945-06-17 22.55 7,900
1946 1946-06-21 20.79 5,800
1947 1947-06-14 23.57 8,820
1948 1948-03-20 25.86 15,800
1949 1949-03-08 27.00 20,900
1950 1950-07-10 28.74 27,600
1951 1951-06-03 28.30 25,500
1952 1952-06-27 24.00 10,600
1953 1953-07-21 11.41 1,530
1954 1954-06-19 19.93 5,080
1955 1955-06-19 12.03 1,600
1956 1956-07-02 9.31 922
1957 1957-06-19 27.53 22,200
1958 1958-07-24 20.22 5,430
1959 1959-05-06 17.70 3,700
1960 1960-03-30 28.00 23,000
1961 1961-05-26 14.20 2,540
1962 1962-03-24 19.92 5,830
1963 1963-06-26 23.23 7,930
1964 1964-06-17 19.70 5,560
1965 1965-06-09 22.86 8,300
1966 1965-10-04 20.54 5,600
1967 1967-06-16 29.80 24,300
1968 1968-08-13 12.72 1,780
1969 1969-03-21 27.30 17,600
1970 1970-08-05 10.73 1,160
1971 1971-03-16 22.61 8,000
1972 1972-07-14 18.20 3,860
1973 1973-04-01 16.56 3,410
1974 1973-10-11 23.11 7,520
1975 1975-06-24 16.72 3,280
1976 1976-05-25 10.97 1,250
1977 1977-09-06 20.69 5,240
1978 1978-03-17 24.63 11,200
1979 1979-03-08 22.48 7,610
1980 1980-06-03 17.35 3,420
1981 1981-09-25 17.83 3,660
1982 1982-06-17 23.49 8,180
1983 1983-06-20 25.90 12,800
1984 1984-06-18 25.16 10,500
1985 1985-07-22 24.87 8,430
1986 1986-07-03 29.86 21,600
1987 1987-03-25 27.84 18,100
1988 1988-09-30 14.40 1,940
1989 1989-09-12 24.07 7,370
1990 1990-07-29 21.96 5,920
1991 1991-06-06 23.93 8,420
1992 1992-07-31 21.91 5,880
1993 1993-03-12 28.80 18,800
1994 1994-06-25 19.04 4,130
1995 1995-05-30 16.41 2,750
1996 1996-05-29 24.26 9,220
1997 1997-07-12 22.29 7,260
1998 1998-06-16 23.63 7,230
1999 1999-07-02 22.87 6,820
2000 2000-07-06 20.91 5,090
2001 2001-06-14 21.48 5,530
2002 2002-08-23 16.63 2,830
2003 2003-06-12 17.57 3,260
2004 2004-03-05 14.17 1,860
2005 2005-05-14 26.17 12,400
2006 2006-08-19 20.70 4,450
2007 2007-04-26 21.51 5,560
2008 2008-06-09 25.10 10,300
2009 2008-10-25 21.70 5,710
2010 2010-06-26 22.56 6,510
2011 2011-05-22 20.30 4,750
2012 2012-06-16 17.34 3,160
2013 2013-05-30 22.67 6,170
2014 2014-08-31 23.41 6,700
2015 2015-06-12 26.07 12,200
2016 2016-05-30 23.56 7,610
2017 2017-08-22 22.33 5,560
2018 2018-09-05 20.82 4,380
2019 2019-03-15 30.64 22,300
2020 2019-10-02 21.17 4,830
2021 2021-03-16 23.10 6,760